Time;durP1;ratioP1;P1;durP2;ratioP2;P2;SDS_P1;SDS_P2;PMS_P1;PMS_P2;Temp;Humidity;BMP_temperature;BMP_pressure;BME280_temperature;BME280_humidity;BME280_pressure;Samples;Min_cycle;Max_cycle;Signal;HPM_P1;HPM_P2
2023/06/26 00:04:06;;;;;;;8.93;8.02;;;;;;;22.74;57.12;100156.31;10198804;29;20039;-77
2023/06/26 00:09:09;;;;;;;13.00;8.98;;;;;;;22.58;57.77;100154.00;10195498;29;20042;-76
2023/06/26 00:14:14;;;;;;;10.85;8.77;;;;;;;22.49;57.99;100153.34;10194858;29;20044;-77
2023/06/26 00:19:17;;;;;;;10.00;7.97;;;;;;;22.52;57.71;100152.94;10194535;29;20044;-77
2023/06/26 00:24:20;;;;;;;11.65;8.95;;;;;;;22.41;58.24;100160.91;10200181;29;20044;-77
2023/06/26 00:29:24;;;;;;;9.43;8.18;;;;;;;22.42;58.24;100143.41;10198621;29;20134;-77
2023/06/26 00:34:27;;;;;;;8.80;7.90;;;;;;;22.35;58.14;100140.66;10197096;29;20135;-77
2023/06/26 00:39:30;;;;;;;9.75;8.68;;;;;;;22.30;58.65;100138.56;10199916;29;20071;-77
2023/06/26 00:44:34;;;;;;;10.15;8.93;;;;;;;22.21;58.49;100138.94;10193974;29;20036;-77
2023/06/26 00:49:37;;;;;;;9.85;8.50;;;;;;;22.19;58.60;100130.97;10208025;29;20500;-77
2023/06/26 00:54:40;;;;;;;11.80;8.57;;;;;;;22.17;58.55;100124.84;10221344;29;20040;-76
2023/06/26 00:59:46;;;;;;;9.32;8.45;;;;;;;22.06;58.97;100120.81;10203813;29;20035;-77
2023/06/26 01:04:49;;;;;;;9.50;8.55;;;;;;;22.04;59.14;100109.22;10211772;29;20048;-77
2023/06/26 01:09:52;;;;;;;10.90;8.52;;;;;;;21.98;59.36;100111.97;10206820;29;20043;-76
2023/06/26 01:14:56;;;;;;;9.68;8.68;;;;;;;21.84;59.42;100111.09;10201814;29;20050;-77
2023/06/26 01:19:59;;;;;;;9.95;8.95;;;;;;;21.68;59.84;100106.78;10195831;29;20067;-77
2023/06/26 01:25:17;;;;;;;10.13;8.10;;;;;;;21.68;59.97;100096.69;10196719;29;20093;-77
2023/06/26 01:30:22;;;;;;;9.18;8.25;;;;;;;21.72;59.99;100093.53;10199820;29;20044;-76
2023/06/26 01:35:26;;;;;;;9.77;8.55;;;;;;;21.63;59.93;100088.25;10202057;29;20785;-77
2023/06/26 01:40:28;;;;;;;10.20;8.60;;;;;;;21.67;59.82;100094.16;10200657;29;20056;-76
2023/06/26 01:45:34;;;;;;;13.15;9.40;;;;;;;21.49;60.29;100085.69;10199349;29;20074;-76
2023/06/26 01:50:39;;;;;;;9.35;8.35;;;;;;;21.40;60.18;100071.34;10200564;29;20051;-76
2023/06/26 01:55:47;;;;;;;9.25;8.38;;;;;;;21.39;60.65;100075.97;10191998;29;20051;-76
2023/06/26 02:00:54;;;;;;;12.45;8.60;;;;;;;21.25;60.86;100073.34;10204254;29;20519;-77
2023/06/26 02:05:57;;;;;;;12.30;9.85;;;;;;;21.27;60.96;100071.28;10205790;29;20130;-76
2023/06/26 02:11:01;;;;;;;9.77;8.77;;;;;;;21.16;60.95;100065.34;10199618;29;20126;-76
2023/06/26 02:16:06;;;;;;;10.73;9.32;;;;;;;21.00;61.29;100061.00;10202079;29;20048;-76
2023/06/26 02:21:10;;;;;;;9.77;8.60;;;;;;;20.92;61.56;100058.44;10207387;29;20048;-76
2023/06/26 02:26:13;;;;;;;11.77;8.80;;;;;;;20.87;61.54;100052.75;10205496;29;20052;-77
2023/06/26 02:31:19;;;;;;;10.55;8.43;;;;;;;20.82;61.41;100052.50;10187569;29;20028;-76
2023/06/26 02:36:22;;;;;;;11.50;8.20;;;;;;;20.89;61.54;100047.06;10191364;29;20123;-77
2023/06/26 02:41:25;;;;;;;10.65;8.88;;;;;;;20.66;62.01;100048.19;10201166;29;20052;-76
2023/06/26 02:46:29;;;;;;;9.40;8.48;;;;;;;20.75;61.96;100043.41;10199686;29;20062;-76
2023/06/26 02:51:33;;;;;;;9.80;8.80;;;;;;;20.69;61.76;100038.75;10200521;29;20044;-76
2023/06/26 02:56:42;;;;;;;12.05;9.13;;;;;;;20.55;62.43;100035.09;10198368;29;20052;-77
2023/06/26 03:01:53;;;;;;;10.32;9.05;;;;;;;20.61;61.97;100023.38;10194320;29;20135;-76
2023/06/26 03:07:01;;;;;;;9.48;8.32;;;;;;;20.63;62.13;100023.19;10194927;29;20055;-76
2023/06/26 03:12:04;;;;;;;13.73;8.43;;;;;;;20.66;61.89;100026.34;10192230;29;20084;-76
2023/06/26 03:17:11;;;;;;;12.80;9.55;;;;;;;20.52;62.21;100036.31;10199276;29;20479;-77
2023/06/26 03:22:16;;;;;;;12.75;8.75;;;;;;;20.51;62.16;100034.63;10201988;29;20082;-76
2023/06/26 03:27:19;;;;;;;9.93;8.93;;;;;;;20.60;62.18;100029.00;10195015;29;20054;-77
2023/06/26 03:32:25;;;;;;;11.25;8.20;;;;;;;20.62;61.79;100026.94;10197312;29;20047;-76
2023/06/26 03:37:28;;;;;;;11.10;8.48;;;;;;;20.62;61.80;100030.50;10187941;29;20074;-76
2023/06/26 03:42:31;;;;;;;7.60;7.00;;;;;;;20.69;61.63;100034.13;10197574;29;20048;-76
2023/06/26 03:47:35;;;;;;;10.63;8.00;;;;;;;20.66;61.74;100029.09;10187356;29;20094;-76
2023/06/26 03:52:38;;;;;;;11.18;7.70;;;;;;;20.71;61.85;100023.03;10199316;29;20052;-77
2023/06/26 03:57:41;;;;;;;10.23;8.25;;;;;;;20.67;61.62;100024.47;10199201;29;20052;-76
2023/06/26 04:02:46;;;;;;;11.48;8.13;;;;;;;20.71;61.44;100023.88;10196155;29;20106;-77
2023/06/26 04:07:51;;;;;;;11.15;8.27;;;;;;;20.67;61.57;100021.72;10190056;29;20058;-77
2023/06/26 04:12:54;;;;;;;12.68;8.20;;;;;;;20.71;61.09;100021.16;10208753;29;20043;-77
2023/06/26 04:17:58;;;;;;;9.63;7.97;;;;;;;20.72;61.03;100035.63;10190420;29;20103;-76
2023/06/26 04:23:01;;;;;;;11.60;8.50;;;;;;;20.71;61.20;100031.22;10193991;29;20114;-76
2023/06/26 04:28:04;;;;;;;9.48;8.52;;;;;;;20.84;60.85;100030.44;10195934;29;20047;-76
2023/06/26 04:33:12;;;;;;;9.15;7.95;;;;;;;20.79;61.03;100021.00;10196528;29;20559;-77
2023/06/26 04:38:15;;;;;;;8.98;8.18;;;;;;;20.82;60.99;100021.63;10196086;29;20051;-76
2023/06/26 04:43:17;;;;;;;10.98;8.48;;;;;;;20.78;61.42;100013.81;10195241;29;20041;-76
2023/06/26 04:48:22;;;;;;;8.93;7.93;;;;;;;20.84;61.17;100014.91;10187999;29;20079;-76
2023/06/26 04:53:25;;;;;;;9.80;8.23;;;;;;;20.88;60.95;100007.19;10192640;29;20043;-76
2023/06/26 04:58:28;;;;;;;9.43;7.85;;;;;;;20.98;60.45;100018.56;10190870;29;20485;-77
2023/06/26 05:03:32;;;;;;;9.05;8.07;;;;;;;21.01;61.16;100010.00;10209169;29;20059;-76
2023/06/26 05:08:35;;;;;;;9.27;8.38;;;;;;;21.19;60.79;100023.13;10195968;29;20067;-76
2023/06/26 05:13:38;;;;;;;9.27;8.30;;;;;;;21.47;60.06;100011.25;10188985;29;20048;-77
2023/06/26 05:18:42;;;;;;;9.70;8.25;;;;;;;21.66;59.92;100013.19;10192815;29;20111;-76
2023/06/26 05:23:47;;;;;;;8.77;7.63;;;;;;;21.67;60.12;100013.00;10186238;29;20393;-77
2023/06/26 05:28:50;;;;;;;9.20;7.88;;;;;;;21.76;58.96;100018.31;10185414;29;20232;-77
2023/06/26 05:33:58;;;;;;;11.98;8.10;;;;;;;21.84;58.44;100023.59;10190157;29;20591;-76
2023/06/26 05:39:02;;;;;;;12.90;8.38;;;;;;;21.98;58.64;100011.63;10198926;29;20052;-76
2023/06/26 05:44:05;;;;;;;7.47;6.40;;;;;;;22.32;55.53;100020.69;10198477;29;20032;-77
2023/06/26 05:49:09;;;;;;;7.97;6.88;;;;;;;22.59;52.28;100018.81;10197166;29;20051;-77
2023/06/26 05:54:15;;;;;;;7.22;6.47;;;;;;;22.52;50.91;100026.22;10188914;29;20131;-76
2023/06/26 05:59:19;;;;;;;7.13;6.43;;;;;;;23.09;51.26;100021.88;10183649;29;20044;-77
2023/06/26 06:04:23;;;;;;;9.82;6.70;;;;;;;22.76;50.94;100019.22;10187916;29;20043;-76
2023/06/26 06:09:26;;;;;;;11.70;7.80;;;;;;;22.85;51.18;100017.09;10194386;29;20490;-76
2023/06/26 06:14:29;;;;;;;7.45;6.63;;;;;;;22.72;51.44;100013.31;10196109;29;20499;-76
2023/06/26 06:19:33;;;;;;;8.55;7.07;;;;;;;22.62;52.45;100015.66;10195654;29;20508;-76
2023/06/26 06:24:36;;;;;;;11.57;7.47;;;;;;;22.30;52.33;100020.91;10191162;29;20052;-77
2023/06/26 06:29:39;;;;;;;10.40;7.50;;;;;;;22.64;52.60;100021.75;10183042;29;20048;-77
2023/06/26 06:34:43;;;;;;;10.75;8.55;;;;;;;22.73;53.14;100027.84;10180681;29;20056;-76
2023/06/26 06:39:46;;;;;;;18.70;8.45;;;;;;;22.95;53.37;100020.22;10182680;29;20048;-76
2023/06/26 06:44:49;;;;;;;9.43;8.27;;;;;;;23.27;52.68;100020.38;10187380;29;20056;-76
2023/06/26 06:49:53;;;;;;;12.10;9.20;;;;;;;23.34;53.04;100024.78;10188659;29;20107;-76
2023/06/26 06:54:58;;;;;;;9.82;8.93;;;;;;;23.24;52.85;100020.81;10193516;29;20058;-76
2023/06/26 07:00:01;;;;;;;12.93;8.32;;;;;;;23.52;52.94;100051.47;10187270;29;20056;-76
2023/06/26 07:05:06;;;;;;;13.02;9.90;;;;;;;23.51;53.02;100052.53;10191882;29;20056;-76
2023/06/26 07:10:12;;;;;;;9.80;8.65;;;;;;;23.84;52.71;100057.03;10177153;29;20159;-76
2023/06/26 07:15:15;;;;;;;10.10;8.63;;;;;;;23.78;52.54;100053.28;10184655;29;20130;-76
2023/06/26 07:20:19;;;;;;;11.57;9.40;;;;;;;23.88;52.72;100056.34;10190105;29;20052;-76
2023/06/26 07:25:22;;;;;;;13.20;9.93;;;;;;;24.43;51.65;100069.53;10192760;29;20044;-77
2023/06/26 07:30:25;;;;;;;11.63;10.23;;;;;;;24.37;51.64;100077.78;10190128;29;20048;-77
2023/06/26 07:35:29;;;;;;;13.55;10.43;;;;;;;23.92;52.82;100092.44;10186858;29;20044;-77
2023/06/26 07:40:32;;;;;;;13.50;9.18;;;;;;;24.69;51.19;100087.69;10190571;29;20040;-77
2023/06/26 07:45:35;;;;;;;13.25;8.05;;;;;;;24.93;50.57;100088.75;10191661;29;20047;-77
2023/06/26 07:50:39;;;;;;;10.88;8.60;;;;;;;24.66;51.79;100090.06;10191609;29;20040;-77
2023/06/26 07:55:44;;;;;;;11.48;9.18;;;;;;;24.27;52.38;100094.72;10196137;29;20044;-77
2023/06/26 08:00:46;;;;;;;10.52;9.30;;;;;;;23.77;53.60;100111.06;10199024;29;20035;-77
2023/06/26 08:05:51;;;;;;;12.43;8.80;;;;;;;23.61;54.44;100120.59;10197927;29;20487;-77
2023/06/26 08:10:53;;;;;;;14.43;10.50;;;;;;;23.87;54.63;100128.75;10195700;29;20056;-77
2023/06/26 08:15:56;;;;;;;11.70;8.95;;;;;;;23.49;54.75;100144.25;10187007;29;20040;-77
2023/06/26 08:21:00;;;;;;;12.00;9.68;;;;;;;23.67;55.89;100155.38;10189379;29;20051;-77
2023/06/26 08:26:03;;;;;;;12.65;9.07;;;;;;;23.76;56.85;100158.72;10190819;29;20052;-77
2023/06/26 08:31:06;;;;;;;13.50;9.63;;;;;;;23.93;56.63;100148.13;10194962;29;20040;-77
2023/06/26 08:36:11;;;;;;;23.83;10.48;;;;;;;24.13;55.19;100153.50;10193970;29;20400;-77
2023/06/26 08:41:13;;;;;;;12.82;9.15;;;;;;;23.21;57.38;100148.94;10199774;29;20043;-77
2023/06/26 08:46:16;;;;;;;14.48;9.77;;;;;;;22.75;58.68;100163.47;10199640;29;20500;-77
2023/06/26 08:51:24;;;;;;;13.02;9.15;;;;;;;23.00;58.67;100165.59;10211502;29;20067;-77
2023/06/26 08:56:33;;;;;;;10.80;8.25;;;;;;;22.45;60.21;100181.34;10205698;29;20050;-78
2023/06/26 09:01:36;;;;;;;18.13;9.63;;;;;;;22.68;59.44;100179.06;10202314;29;20068;-77
2023/06/26 09:06:41;;;;;;;16.73;9.63;;;;;;;22.94;59.27;100202.88;10198086;29;20131;-77
2023/06/26 09:11:44;;;;;;;15.25;9.75;;;;;;;22.18;60.99;100194.91;10208314;29;20154;-77
2023/06/26 09:16:46;;;;;;;13.38;9.10;;;;;;;22.97;60.02;100198.88;10208319;29;20048;-77
2023/06/26 09:21:51;;;;;;;17.70;9.65;;;;;;;23.97;56.72;100190.50;10197751;29;20054;-78
2023/06/26 09:26:55;;;;;;;13.93;9.63;;;;;;;24.09;56.18;100205.25;10202769;29;20047;-78
2023/06/26 09:31:58;;;;;;;13.95;8.98;;;;;;;23.19;58.40;100211.31;10202669;29;20043;-77
2023/06/26 09:37:03;;;;;;;16.95;8.05;;;;;;;23.46;56.78;100205.00;10208356;29;20051;-78
2023/06/26 09:42:07;;;;;;;14.77;7.97;;;;;;;24.00;56.37;100204.66;10208181;29;20040;-77
2023/06/26 09:47:10;;;;;;;13.15;7.50;;;;;;;24.49;54.50;100213.28;10205218;29;20135;-77
2023/06/26 09:52:17;;;;;;;9.30;7.28;;;;;;;24.22;54.29;100199.69;10206575;29;20100;-77
2023/06/26 09:57:20;;;;;;;13.48;7.55;;;;;;;23.93;55.38;100192.84;10215656;29;20044;-77
2023/06/26 10:02:22;;;;;;;13.85;7.30;;;;;;;23.30;56.96;100214.50;10212484;29;20040;-76
2023/06/26 10:07:27;;;;;;;15.25;7.50;;;;;;;23.50;56.90;100208.97;10204329;29;20059;-77
2023/06/26 10:12:31;;;;;;;11.18;7.10;;;;;;;23.85;54.47;100209.53;10204832;29;20044;-77
2023/06/26 10:17:37;;;;;;;9.95;6.70;;;;;;;23.91;54.40;100216.06;10204777;29;20044;-77
2023/06/26 10:22:45;;;;;;;12.95;6.97;;;;;;;23.34;55.93;100211.13;10207254;29;20043;-77
2023/06/26 10:27:51;;;;;;;8.65;5.90;;;;;;;23.26;56.79;100218.69;10204295;29;20078;-78
2023/06/26 10:32:55;;;;;;;12.95;6.55;;;;;;;24.12;54.78;100218.53;10189869;29;20052;-78
2023/06/26 10:38:03;;;;;;;10.32;6.30;;;;;;;24.46;54.01;100222.81;10192904;29;20500;-79
2023/06/26 10:43:08;;;;;;;12.93;6.13;;;;;;;23.60;54.84;100232.16;10192192;29;20046;-78
2023/06/26 10:48:15;;;;;;;8.18;5.90;;;;;;;23.38;54.91;100230.72;10201209;29;20048;-77
2023/06/26 10:53:33;;;;;;;10.85;6.00;;;;;;;24.34;52.70;100238.25;10203301;29;20119;-78
2023/06/26 10:58:43;;;;;;;9.70;5.43;;;;;;;24.89;51.10;100243.25;10201117;29;20059;-78
2023/06/26 11:03:49;;;;;;;11.25;5.32;;;;;;;26.92;47.07;100245.06;10204603;29;20040;-78
2023/06/26 11:08:55;;;;;;;8.10;5.07;;;;;;;26.88;44.57;100249.38;10199328;29;20079;-79
2023/06/26 11:13:57;;;;;;;7.88;4.90;;;;;;;25.44;48.54;100246.19;10152982;29;1397938;-78
2023/06/26 11:19:01;;;;;;;7.72;4.80;;;;;;;23.76;51.19;100252.81;10208239;29;20491;-78
2023/06/26 11:24:06;;;;;;;6.70;4.15;;;;;;;24.47;48.58;100259.34;10205783;29;20689;-78
2023/06/26 11:29:10;;;;;;;21.80;4.65;;;;;;;25.45;45.29;100272.63;10201972;29;20535;-79
2023/06/26 11:34:15;;;;;;;8.77;3.25;;;;;;;25.47;44.71;100253.16;10210012;29;20115;-78
2023/06/26 11:39:19;;;;;;;5.30;3.50;;;;;;;26.39;44.29;100253.25;10201344;29;20044;-78
2023/06/26 11:44:22;;;;;;;5.50;3.17;;;;;;;26.34;42.96;100258.59;10197427;29;20051;-79
2023/06/26 11:49:26;;;;;;;4.32;3.38;;;;;;;25.90;43.28;100277.09;10209440;29;20090;-79
2023/06/26 11:54:31;;;;;;;3.03;2.65;;;;;;;25.43;42.45;100276.69;10199220;29;20055;-79
2023/06/26 11:59:37;;;;;;;7.72;2.70;;;;;;;26.15;39.96;100282.50;10202879;29;20043;-78
2023/06/26 12:04:42;;;;;;;6.32;2.85;;;;;;;26.31;40.75;100286.59;10208341;29;20106;-77
2023/06/26 12:09:48;;;;;;;3.17;2.10;;;;;;;27.05;40.40;100271.59;10199085;29;20051;-78
2023/06/26 12:14:52;;;;;;;4.93;2.63;;;;;;;28.66;38.55;100279.44;10200891;29;20044;-78
2023/06/26 12:19:55;;;;;;;3.45;2.65;;;;;;;29.40;35.81;100280.44;10192166;29;20047;-78
2023/06/26 12:24:59;;;;;;;3.83;2.60;;;;;;;29.24;35.77;100282.16;10203662;29;20040;-78
2023/06/26 12:30:05;;;;;;;5.78;2.67;;;;;;;27.50;36.92;100287.63;10203132;29;20452;-77
2023/06/26 12:35:10;;;;;;;9.30;3.03;;;;;;;27.07;38.07;100280.47;10200816;29;20519;-78
2023/06/26 12:40:22;;;;;;;5.32;2.35;;;;;;;26.35;38.71;100290.56;10200605;29;20048;-77
2023/06/26 12:45:25;;;;;;;3.33;2.40;;;;;;;27.02;38.48;100280.34;10201561;29;20492;-79
2023/06/26 12:50:38;;;;;;;4.75;2.25;;;;;;;27.11;39.67;100294.59;10198146;29;20051;-78
2023/06/26 12:55:43;;;;;;;4.85;2.55;;;;;;;27.00;39.94;100307.28;10196377;29;20036;-77
2023/06/26 13:00:46;;;;;;;4.25;2.60;;;;;;;26.48;38.90;100298.66;10200530;29;20112;-78
2023/06/26 13:05:48;;;;;;;5.13;2.38;;;;;;;26.42;39.82;100297.66;10204440;29;20044;-78
2023/06/26 13:10:53;;;;;;;3.00;2.17;;;;;;;26.94;39.76;100291.69;10207111;29;20048;-78
2023/06/26 13:15:55;;;;;;;5.05;2.22;;;;;;;26.68;39.71;100290.94;10208812;29;20032;-79
2023/06/26 13:20:58;;;;;;;8.20;2.67;;;;;;;25.82;40.54;100311.25;10204065;29;20047;-79
2023/06/26 13:26:02;;;;;;;3.70;2.60;;;;;;;26.52;40.21;100327.41;10198181;29;20431;-78
2023/06/26 13:31:05;;;;;;;3.63;2.20;;;;;;;27.73;38.37;100314.38;10194563;29;20052;-78
2023/06/26 13:36:08;;;;;;;3.20;2.53;;;;;;;28.36;38.14;100315.53;10194873;29;20067;-78
2023/06/26 13:41:13;;;;;;;4.60;2.25;;;;;;;28.33;36.98;100301.34;10205580;29;20036;-77
2023/06/26 13:46:16;;;;;;;6.28;2.50;;;;;;;26.87;39.54;100324.00;10202166;29;20044;-78
2023/06/26 13:51:20;;;;;;;3.70;2.65;;;;;;;25.67;41.00;100324.50;10200363;29;20095;-78
2023/06/26 13:56:24;;;;;;;4.57;2.58;;;;;;;27.11;40.57;100317.50;10203390;29;20626;-78
2023/06/26 14:01:27;;;;;;;4.78;2.88;;;;;;;28.38;38.05;100318.88;10201953;29;20123;-78
2023/06/26 14:06:32;;;;;;;4.60;2.42;;;;;;;23.92;44.39;100347.53;10195829;29;20044;-78
2023/06/26 14:11:36;;;;;;;2.75;2.50;;;;;;;24.96;43.59;100349.28;10196533;29;20495;-77
2023/06/26 14:16:39;;;;;;;6.30;2.63;;;;;;;25.30;42.53;100349.09;10201280;29;20595;-77
2023/06/26 14:21:42;;;;;;;7.65;2.60;;;;;;;27.02;40.05;100340.97;10199634;29;20051;-77
2023/06/26 14:26:47;;;;;;;2.53;2.10;;;;;;;27.91;37.28;100321.69;10203417;29;20039;-77
2023/06/26 14:31:50;;;;;;;4.10;2.22;;;;;;;24.73;41.40;100332.50;10203143;29;20044;-78
2023/06/26 14:36:55;;;;;;;5.32;2.70;;;;;;;24.45;42.81;100347.41;10201926;29;20075;-77
2023/06/26 14:41:59;;;;;;;3.15;2.20;;;;;;;25.71;39.95;100343.06;10201472;29;20043;-78
2023/06/26 14:47:02;;;;;;;5.35;2.50;;;;;;;27.02;38.04;100353.91;10206782;29;20407;-77
2023/06/26 14:52:06;;;;;;;4.75;2.35;;;;;;;26.18;40.14;100370.13;10207946;29;20050;-77
2023/06/26 14:57:10;;;;;;;5.60;2.15;;;;;;;25.47;39.62;100374.13;10206869;29;20826;-77
2023/06/26 15:02:13;;;;;;;2.78;1.70;;;;;;;25.68;39.32;100360.03;10209879;29;20048;-78
2023/06/26 15:07:16;;;;;;;2.20;1.77;;;;;;;25.54;38.95;100366.69;10210437;29;20056;-78
2023/06/26 15:12:20;;;;;;;2.65;1.70;;;;;;;25.98;38.75;100364.84;10203215;29;20039;-78
2023/06/26 15:17:23;;;;;;;3.38;1.60;;;;;;;26.27;36.88;100371.53;10197066;29;20063;-77
2023/06/26 15:22:27;;;;;;;3.88;1.80;;;;;;;25.07;39.22;100366.19;10199831;29;20048;-76
2023/06/26 15:27:31;;;;;;;3.97;2.00;;;;;;;25.65;38.06;100363.25;10205880;29;20047;-77
2023/06/26 15:32:34;;;;;;;3.78;1.67;;;;;;;25.51;36.59;100359.72;10203322;29;20060;-76
2023/06/26 15:37:38;;;;;;;3.38;1.55;;;;;;;24.62;37.34;100368.88;10202118;29;20047;-77
2023/06/26 15:42:50;;;;;;;3.10;1.70;;;;;;;24.50;37.38;100372.31;10197927;29;20111;-78
2023/06/26 15:47:53;;;;;;;3.42;2.00;;;;;;;23.99;38.36;100373.03;10202918;29;20047;-78
2023/06/26 15:52:56;;;;;;;3.15;1.60;;;;;;;24.59;37.31;100375.66;10200584;29;20050;-77
2023/06/26 15:58:00;;;;;;;3.20;1.75;;;;;;;25.24;37.16;100399.47;10202309;29;20050;-77
2023/06/26 16:03:03;;;;;;;2.85;1.50;;;;;;;24.59;38.50;100394.88;10203975;29;20126;-77
2023/06/26 16:08:06;;;;;;;2.50;1.30;;;;;;;23.64;37.82;100400.66;10202442;29;20078;-77
2023/06/26 16:13:11;;;;;;;4.40;1.50;;;;;;;22.63;40.20;100400.59;10199573;29;20103;-76
2023/06/26 16:18:13;;;;;;;3.15;1.20;;;;;;;23.49;39.27;100405.50;10198304;29;20059;-77
2023/06/26 16:23:18;;;;;;;3.85;1.00;;;;;;;23.52;39.16;100405.06;10205888;29;20055;-78
2023/06/26 16:28:25;;;;;;;5.55;1.40;;;;;;;23.61;38.63;100403.84;10219977;29;20079;-79
2023/06/26 16:33:28;;;;;;;3.33;1.30;;;;;;;23.31;39.73;100411.59;10215162;29;20040;-79
2023/06/26 16:38:31;;;;;;;2.38;1.40;;;;;;;24.04;38.60;100402.56;10216727;29;20080;-79
2023/06/26 16:43:36;;;;;;;2.50;1.10;;;;;;;22.84;40.42;100409.72;10216424;29;20051;-78
2023/06/26 16:48:39;;;;;;;3.15;1.17;;;;;;;24.22;38.39;100418.41;10211364;29;20052;-79
2023/06/26 16:53:42;;;;;;;3.65;1.17;;;;;;;23.38;38.84;100419.81;10203800;29;20036;-78
2023/06/26 16:58:46;;;;;;;2.40;0.90;;;;;;;23.95;38.11;100426.66;10210958;29;20056;-79
2023/06/26 17:03:51;;;;;;;3.17;1.05;;;;;;;23.41;37.61;100433.09;10207825;29;20040;-79
2023/06/26 17:08:54;;;;;;;3.83;1.08;;;;;;;23.33;39.27;100436.03;10207219;29;20068;-79
2023/06/26 17:13:58;;;;;;;3.20;1.17;;;;;;;23.50;38.42;100426.34;10218452;29;20582;-79
2023/06/26 17:19:02;;;;;;;3.05;1.23;;;;;;;22.55;40.23;100431.69;10223441;29;20074;-78
2023/06/26 17:24:06;;;;;;;3.88;1.55;;;;;;;22.25;40.81;100441.16;10214870;29;20075;-78
2023/06/26 17:29:10;;;;;;;3.85;1.10;;;;;;;22.13;41.75;100450.94;10219421;29;20115;-78
2023/06/26 17:34:14;;;;;;;2.47;0.90;;;;;;;22.36;41.35;100462.50;10207567;29;20050;-79
2023/06/26 17:39:18;;;;;;;3.08;1.00;;;;;;;21.67;41.70;100466.75;10212861;29;20480;-78
2023/06/26 17:44:27;;;;;;;5.63;1.05;;;;;;;24.77;38.30;100462.84;10212815;29;20051;-77
2023/06/26 17:49:30;;;;;;;2.67;1.00;;;;;;;27.67;33.30;100466.22;10211622;29;20043;-78
2023/06/26 17:54:33;;;;;;;4.88;1.10;;;;;;;26.22;33.53;100468.56;10218928;29;20054;-78
2023/06/26 17:59:37;;;;;;;4.88;1.10;;;;;;;25.04;36.94;100484.75;10218537;29;20051;-77
2023/06/26 18:04:42;;;;;;;2.78;0.57;;;;;;;22.64;39.92;100486.28;10217830;29;20054;-78
2023/06/26 18:09:45;;;;;;;4.40;1.00;;;;;;;21.58;41.31;100491.66;10224589;29;20071;-78
2023/06/26 18:14:50;;;;;;;4.47;0.98;;;;;;;21.12;41.80;100492.81;10215703;29;20066;-78
2023/06/26 18:19:53;;;;;;;3.60;1.00;;;;;;;20.87;41.79;100502.31;10213265;29;20052;-78
2023/06/26 18:24:55;;;;;;;2.53;1.15;;;;;;;20.33;43.50;100501.53;10213217;29;20059;-78
2023/06/26 18:30:00;;;;;;;5.65;1.13;;;;;;;20.87;42.61;100514.09;10213931;29;20103;-78
2023/06/26 18:35:04;;;;;;;4.60;1.05;;;;;;;20.27;43.96;100515.06;10218433;29;20095;-78
2023/06/26 18:40:13;;;;;;;3.33;1.20;;;;;;;20.81;43.50;100519.44;10202034;29;20138;-78
2023/06/26 18:45:18;;;;;;;3.33;1.10;;;;;;;19.98;44.69;100521.25;10197048;29;20043;-78
2023/06/26 18:50:22;;;;;;;1.52;0.82;;;;;;;20.03;44.52;100527.00;10214520;29;20044;-78
2023/06/26 18:55:26;;;;;;;4.10;1.27;;;;;;;20.07;44.75;100526.44;10236364;29;20364;-78
2023/06/26 19:00:30;;;;;;;3.30;1.30;;;;;;;19.96;45.25;100532.31;10216236;29;20083;-78
2023/06/26 19:05:33;;;;;;;5.65;1.27;;;;;;;19.79;45.99;100534.34;10210714;29;20100;-78
2023/06/26 19:10:36;;;;;;;3.70;1.10;;;;;;;19.63;46.39;100550.78;10207526;29;20119;-79
2023/06/26 19:15:40;;;;;;;4.32;1.08;;;;;;;19.40;46.54;100546.13;10197782;29;20039;-78
2023/06/26 19:20:43;;;;;;;2.95;1.08;;;;;;;19.25;46.14;100572.41;10198660;29;20048;-78
2023/06/26 19:25:46;;;;;;;1.67;1.00;;;;;;;19.35;45.67;100570.31;10204487;29;20111;-77
2023/06/26 19:30:51;;;;;;;2.65;1.35;;;;;;;18.98;46.44;100569.13;10208499;29;20063;-77
2023/06/26 19:35:54;;;;;;;3.67;1.67;;;;;;;18.70;47.18;100581.38;10208409;29;20067;-78
2023/06/26 19:40:57;;;;;;;2.55;0.90;;;;;;;18.29;48.69;100586.84;10207289;29;20455;-77
2023/06/26 19:46:01;;;;;;;3.97;1.08;;;;;;;18.17;49.03;100583.63;10211885;29;20526;-78
2023/06/26 19:51:05;;;;;;;3.40;1.05;;;;;;;18.13;49.81;100595.88;10201372;29;20074;-78
2023/06/26 19:56:08;;;;;;;3.30;1.10;;;;;;;17.92;50.00;100594.44;10197149;29;20706;-78
2023/06/26 20:01:12;;;;;;;2.92;1.17;;;;;;;18.22;49.69;100599.44;10203423;29;20512;-78
2023/06/26 20:06:16;;;;;;;1.58;0.80;;;;;;;18.15;49.69;100610.13;10205838;29;20089;-78
2023/06/26 20:11:18;;;;;;;2.00;1.08;;;;;;;17.87;50.27;100610.41;10204440;29;20051;-79
2023/06/26 20:16:23;;;;;;;3.42;1.10;;;;;;;17.55;51.32;100616.63;10225526;29;20067;-78
2023/06/26 20:21:26;;;;;;;5.00;1.08;;;;;;;17.68;50.97;100616.97;10205486;29;20078;-79
2023/06/26 20:26:29;;;;;;;3.90;1.48;;;;;;;17.93;50.57;100620.59;10202180;29;20052;-78
2023/06/26 20:31:33;;;;;;;1.75;1.23;;;;;;;17.63;51.57;100622.03;10205888;29;20055;-78
2023/06/26 20:36:36;;;;;;;2.33;0.90;;;;;;;17.68;50.99;100630.56;10196684;29;20047;-78
2023/06/26 20:41:39;;;;;;;5.88;1.80;;;;;;;17.39;51.79;100633.69;10208459;29;20058;-78
2023/06/26 20:46:44;;;;;;;4.00;1.40;;;;;;;17.21;52.00;100630.19;10210275;29;20039;-78
2023/06/26 20:51:48;;;;;;;3.83;1.02;;;;;;;16.97;52.55;100633.59;10205846;29;20131;-78
2023/06/26 20:56:51;;;;;;;3.30;1.10;;;;;;;17.08;52.91;100638.72;10208641;29;20112;-78
2023/06/26 21:01:55;;;;;;;2.08;0.80;;;;;;;16.97;53.37;100647.16;10198795;29;20039;-77
2023/06/26 21:06:59;;;;;;;2.95;1.10;;;;;;;16.74;53.50;100649.53;10209345;29;20487;-78
2023/06/26 21:12:02;;;;;;;3.83;1.08;;;;;;;16.96;53.27;100654.44;10210280;29;20055;-77
2023/06/26 21:17:06;;;;;;;2.40;0.90;;;;;;;17.06;53.05;100657.06;10209044;29;20052;-77
2023/06/26 21:22:09;;;;;;;4.20;0.93;;;;;;;16.66;53.55;100665.75;10211263;29;20074;-77
2023/06/26 21:27:12;;;;;;;5.10;1.50;;;;;;;16.61;54.24;100660.78;10206194;29;20036;-77
2023/06/26 21:32:16;;;;;;;4.93;1.23;;;;;;;16.15;55.12;100668.13;10204534;29;20043;-77
2023/06/26 21:37:19;;;;;;;3.45;1.30;;;;;;;16.07;55.10;100670.75;10203643;29;20048;-77
2023/06/26 21:42:22;;;;;;;4.15;1.50;;;;;;;16.26;55.22;100667.94;10197298;29;20059;-77
2023/06/26 21:47:26;;;;;;;4.45;1.58;;;;;;;16.54;54.39;100659.75;10208334;29;20051;-77
2023/06/26 21:52:29;;;;;;;4.65;1.30;;;;;;;15.96;55.54;100671.81;10207274;29;20689;-77
2023/06/26 21:57:32;;;;;;;4.15;1.30;;;;;;;15.73;55.87;100659.72;10199072;29;20087;-77
2023/06/26 22:02:36;;;;;;;4.65;1.65;;;;;;;15.87;55.33;100672.75;10203921;29;20059;-77
2023/06/26 22:07:40;;;;;;;4.28;1.77;;;;;;;15.76;55.31;100678.38;10194351;29;20547;-77
2023/06/26 22:12:57;;;;;;;3.92;1.60;;;;;;;15.50;55.56;100689.06;10192700;29;20036;-78
2023/06/26 22:18:01;;;;;;;4.07;1.27;;;;;;;15.76;54.96;100690.06;10194588;29;20059;-78
2023/06/26 22:23:04;;;;;;;2.50;1.25;;;;;;;15.65;54.58;100699.22;10204751;29;20083;-78
2023/06/26 22:28:07;;;;;;;2.20;1.30;;;;;;;15.56;54.74;100700.13;10202046;29;20455;-78
2023/06/26 22:33:11;;;;;;;5.15;1.27;;;;;;;15.65;54.44;100699.22;10203758;29;20415;-78
2023/06/26 22:38:15;;;;;;;3.47;1.20;;;;;;;15.33;54.80;100698.75;10201262;29;20046;-77
2023/06/26 22:43:18;;;;;;;5.13;1.20;;;;;;;15.23;54.88;100699.66;10191634;29;20047;-78
2023/06/26 22:48:22;;;;;;;2.65;1.27;;;;;;;15.23;55.03;100694.25;10185927;29;20048;-77
2023/06/26 22:53:25;;;;;;;2.47;1.42;;;;;;;15.27;54.73;100687.53;10193317;29;20063;-77
2023/06/26 22:58:28;;;;;;;1.73;1.50;;;;;;;15.14;54.65;100686.13;10200285;29;20040;-77
2023/06/26 23:03:32;;;;;;;2.25;1.10;;;;;;;15.22;55.02;100695.25;10198966;29;20515;-77
2023/06/26 23:08:37;;;;;;;5.47;1.40;;;;;;;14.82;56.07;100699.03;10199639;29;20524;-77
2023/06/26 23:13:40;;;;;;;3.78;1.13;;;;;;;14.85;55.83;100695.19;10204297;29;20052;-78